sensor_id;sensor_type;location;lat;lon;timestamp;pressure;altitude;pressure_sealevel;temperature;humidity
38780;BME280;29273;49.962;9.768;2022-12-01T00:01:20;100543.53;;;8.63;56.39
38780;BME280;29273;49.962;9.768;2022-12-01T00:03:46;100551.28;;;8.64;56.05
38780;BME280;29273;49.962;9.768;2022-12-01T00:06:14;100545.63;;;8.67;56.06
38780;BME280;29273;49.962;9.768;2022-12-01T00:08:41;100543.00;;;8.67;56.09
38780;BME280;29273;49.962;9.768;2022-12-01T00:11:26;100541.38;;;8.66;56.34
38780;BME280;29273;49.962;9.768;2022-12-01T00:13:52;100545.63;;;8.67;56.22
38780;BME280;29273;49.962;9.768;2022-12-01T00:16:17;100545.47;;;8.69;56.31
38780;BME280;29273;49.962;9.768;2022-12-01T00:18:43;100545.28;;;8.70;56.46
38780;BME280;29273;49.962;9.768;2022-12-01T00:21:20;100533.06;;;8.78;56.54
38780;BME280;29273;49.962;9.768;2022-12-01T00:23:48;100533.25;;;8.76;56.32
38780;BME280;29273;49.962;9.768;2022-12-01T00:26:15;100530.59;;;8.76;55.83
38780;BME280;29273;49.962;9.768;2022-12-01T00:28:41;100533.25;;;8.76;55.84
38780;BME280;29273;49.962;9.768;2022-12-01T00:31:11;100536.19;;;8.81;56.23
38780;BME280;29273;49.962;9.768;2022-12-01T00:33:37;100534.06;;;8.77;55.84
38780;BME280;29273;49.962;9.768;2022-12-01T00:36:03;100536.69;;;8.77;55.96
38780;BME280;29273;49.962;9.768;2022-12-01T00:38:29;100533.25;;;8.76;56.07
38780;BME280;29273;49.962;9.768;2022-12-01T00:40:55;100539.50;;;8.75;56.07
38780;BME280;29273;49.962;9.768;2022-12-01T00:43:21;100538.69;;;8.75;55.77
38780;BME280;29273;49.962;9.768;2022-12-01T00:45:46;100548.41;;;8.74;56.00
38780;BME280;29273;49.962;9.768;2022-12-01T00:48:12;100545.78;;;8.74;55.76
38780;BME280;29273;49.962;9.768;2022-12-01T00:50:38;100553.53;;;8.76;56.02
38780;BME280;29273;49.962;9.768;2022-12-01T00:53:03;100549.25;;;8.75;55.95
38780;BME280;29273;49.962;9.768;2022-12-01T00:55:29;100552.72;;;8.75;56.03
38780;BME280;29273;49.962;9.768;2022-12-01T00:57:54;100555.53;;;8.74;55.83
38780;BME280;29273;49.962;9.768;2022-12-01T01:00:20;100556.34;;;8.74;55.83
38780;BME280;29273;49.962;9.768;2022-12-01T01:02:45;100547.44;;;8.75;55.36
38780;BME280;29273;49.962;9.768;2022-12-01T01:05:11;100551.22;;;8.73;55.65
38780;BME280;29273;49.962;9.768;2022-12-01T01:07:36;100551.41;;;8.71;55.71
38780;BME280;29273;49.962;9.768;2022-12-01T01:10:02;100554.06;;;8.71;55.91
38780;BME280;29273;49.962;9.768;2022-12-01T01:12:28;100555.84;;;8.70;55.63
38780;BME280;29273;49.962;9.768;2022-12-01T01:14:53;100554.22;;;8.69;55.52
38780;BME280;29273;49.962;9.768;2022-12-01T01:17:19;100556.88;;;8.69;55.64
38780;BME280;29273;49.962;9.768;2022-12-01T01:19:44;100551.59;;;8.69;55.67
38780;BME280;29273;49.962;9.768;2022-12-01T01:22:10;100556.69;;;8.71;55.47
38780;BME280;29273;49.962;9.768;2022-12-01T01:24:36;100553.38;;;8.69;55.33
38780;BME280;29273;49.962;9.768;2022-12-01T01:27:02;100559.69;;;8.68;55.48
38780;BME280;29273;49.962;9.768;2022-12-01T01:29:30;100557.38;;;8.65;55.62
38780;BME280;29273;49.962;9.768;2022-12-01T01:31:56;100556.72;;;8.63;55.50
38780;BME280;29273;49.962;9.768;2022-12-01T01:34:21;100559.53;;;8.61;55.39
38780;BME280;29273;49.962;9.768;2022-12-01T01:36:47;100564.81;;;8.61;55.52
38780;BME280;29273;49.962;9.768;2022-12-01T01:39:12;100560.34;;;8.62;55.64
38780;BME280;29273;49.962;9.768;2022-12-01T01:41:38;100557.72;;;8.62;55.58
38780;BME280;29273;49.962;9.768;2022-12-01T01:47:09;100555.06;;;8.62;55.43
38780;BME280;29273;49.962;9.768;2022-12-01T01:49:34;100555.06;;;8.62;54.96
38780;BME280;29273;49.962;9.768;2022-12-01T01:52:01;100561.00;;;8.64;55.42
38780;BME280;29273;49.962;9.768;2022-12-01T01:54:33;100560.84;;;8.65;55.46
38780;BME280;29273;49.962;9.768;2022-12-01T01:57:00;100559.53;;;8.61;55.18
38780;BME280;29273;49.962;9.768;2022-12-01T01:59:33;100564.47;;;8.64;55.64
38780;BME280;29273;49.962;9.768;2022-12-01T02:02:04;100557.72;;;8.62;55.53
38780;BME280;29273;49.962;9.768;2022-12-01T02:04:34;100557.88;;;8.60;55.51
38780;BME280;29273;49.962;9.768;2022-12-01T02:07:00;100560.69;;;8.59;55.29
38780;BME280;29273;49.962;9.768;2022-12-01T02:09:27;100558.06;;;8.59;55.14
38780;BME280;29273;49.962;9.768;2022-12-01T02:17:25;100560.69;;;8.59;55.39
38780;BME280;29273;49.962;9.768;2022-12-01T02:22:46;100552.78;;;8.59;55.16
38780;BME280;29273;49.962;9.768;2022-12-01T02:34:01;100549.00;;;8.53;55.05
38780;BME280;29273;49.962;9.768;2022-12-01T02:36:33;100546.19;;;8.55;54.96
38780;BME280;29273;49.962;9.768;2022-12-01T02:39:16;100550.78;;;8.52;55.00
38780;BME280;29273;49.962;9.768;2022-12-01T02:41:48;100553.63;;;8.51;54.76
38780;BME280;29273;49.962;9.768;2022-12-01T02:44:26;100549.34;;;8.50;54.89
38780;BME280;29273;49.962;9.768;2022-12-01T02:46:59;100553.13;;;8.47;54.47
38780;BME280;29273;49.962;9.768;2022-12-01T02:49:34;100549.84;;;8.45;54.57
38780;BME280;29273;49.962;9.768;2022-12-01T02:52:04;100548.38;;;8.43;54.62
38780;BME280;29273;49.962;9.768;2022-12-01T02:54:31;100553.13;;;8.39;54.29
38780;BME280;29273;49.962;9.768;2022-12-01T02:56:58;100556.13;;;8.36;54.23
38780;BME280;29273;49.962;9.768;2022-12-01T02:59:23;100551.00;;;8.34;54.31
38780;BME280;29273;49.962;9.768;2022-12-01T03:04:39;100554.28;;;8.37;54.51
38780;BME280;29273;49.962;9.768;2022-12-01T03:07:19;100550.66;;;8.38;54.61
38780;BME280;29273;49.962;9.768;2022-12-01T03:16:11;100547.84;;;8.31;54.28
38780;BME280;29273;49.962;9.768;2022-12-01T03:18:58;100540.31;;;8.28;54.10
38780;BME280;29273;49.962;9.768;2022-12-01T03:21:32;100542.56;;;8.31;53.91
38780;BME280;29273;49.962;9.768;2022-12-01T03:24:09;100541.94;;;8.29;53.88
38780;BME280;29273;49.962;9.768;2022-12-01T03:26:36;100536.34;;;8.24;53.36
38780;BME280;29273;49.962;9.768;2022-12-01T03:29:08;100535.03;;;8.28;53.70
38780;BME280;29273;49.962;9.768;2022-12-01T03:31:37;100527.28;;;8.26;53.47
38780;BME280;29273;49.962;9.768;2022-12-01T03:34:21;100530.28;;;8.07;54.67
38780;BME280;29273;49.962;9.768;2022-12-01T03:36:55;100525.13;;;8.22;54.00
38780;BME280;29273;49.962;9.768;2022-12-01T03:39:29;100534.72;;;8.23;53.88
38780;BME280;29273;49.962;9.768;2022-12-01T03:42:45;100524.50;;;8.11;54.09
38780;BME280;29273;49.962;9.768;2022-12-01T03:45:18;100532.91;;;8.15;53.37
38780;BME280;29273;49.962;9.768;2022-12-01T03:47:48;100534.56;;;8.08;53.65
38780;BME280;29273;49.962;9.768;2022-12-01T03:50:15;100529.28;;;8.08;53.79
38780;BME280;29273;49.962;9.768;2022-12-01T03:52:48;100533.88;;;8.06;53.54
38780;BME280;29273;49.962;9.768;2022-12-01T03:55:25;100531.75;;;8.09;54.05
38780;BME280;29273;49.962;9.768;2022-12-01T04:00:36;100537.53;;;8.05;53.75
38780;BME280;29273;49.962;9.768;2022-12-01T04:03:02;100538.34;;;8.05;53.94
38780;BME280;29273;49.962;9.768;2022-12-01T04:05:30;100531.41;;;8.04;53.76
38780;BME280;29273;49.962;9.768;2022-12-01T04:07:57;100542.81;;;8.05;53.66
38780;BME280;29273;49.962;9.768;2022-12-01T04:10:22;100540.19;;;8.05;53.49
38780;BME280;29273;49.962;9.768;2022-12-01T04:12:48;100541.97;;;8.04;53.27
38780;BME280;29273;49.962;9.768;2022-12-01T04:15:14;100538.50;;;8.04;53.35
38780;BME280;29273;49.962;9.768;2022-12-01T04:17:41;100549.88;;;8.04;53.43
38780;BME280;29273;49.962;9.768;2022-12-01T04:20:14;100552.19;;;8.07;53.39
38780;BME280;29273;49.962;9.768;2022-12-01T04:22:40;100553.03;;;8.00;52.97
38780;BME280;29273;49.962;9.768;2022-12-01T04:25:06;100546.91;;;7.99;53.46
38780;BME280;29273;49.962;9.768;2022-12-01T04:27:32;100540.19;;;7.96;53.50
38780;BME280;29273;49.962;9.768;2022-12-01T04:29:58;100545.47;;;7.96;53.29
38780;BME280;29273;49.962;9.768;2022-12-01T04:32:23;100548.25;;;7.95;53.37
38780;BME280;29273;49.962;9.768;2022-12-01T04:34:49;100542.16;;;7.94;53.21
38780;BME280;29273;49.962;9.768;2022-12-01T04:37:15;100549.22;;;7.94;53.53
38780;BME280;29273;49.962;9.768;2022-12-01T04:39:41;100546.75;;;7.92;53.56
38780;BME280;29273;49.962;9.768;2022-12-01T04:42:07;100549.56;;;7.91;54.03
38780;BME280;29273;49.962;9.768;2022-12-01T04:44:33;100548.59;;;7.92;53.88
38780;BME280;29273;49.962;9.768;2022-12-01T04:46:58;100546.09;;;7.90;53.87
38780;BME280;29273;49.962;9.768;2022-12-01T04:49:24;100548.59;;;7.92;54.01
38780;BME280;29273;49.962;9.768;2022-12-01T04:51:49;100542.34;;;7.93;53.87
38780;BME280;29273;49.962;9.768;2022-12-01T04:54:15;100549.22;;;7.94;53.83
38780;BME280;29273;49.962;9.768;2022-12-01T04:56:41;100537.06;;;7.93;53.62
38780;BME280;29273;49.962;9.768;2022-12-01T04:59:07;100540.34;;;7.95;53.73
38780;BME280;29273;49.962;9.768;2022-12-01T05:01:33;100538.84;;;7.92;53.71
38780;BME280;29273;49.962;9.768;2022-12-01T05:03:59;100540.66;;;7.92;53.77
38780;BME280;29273;49.962;9.768;2022-12-01T05:06:26;100544.81;;;7.94;54.01
38780;BME280;29273;49.962;9.768;2022-12-01T05:08:57;100539.38;;;7.96;54.06
38780;BME280;29273;49.962;9.768;2022-12-01T05:11:26;100538.19;;;7.90;53.81
38780;BME280;29273;49.962;9.768;2022-12-01T05:13:52;100550.56;;;7.90;53.75
38780;BME280;29273;49.962;9.768;2022-12-01T05:16:23;100547.59;;;7.93;54.00
38780;BME280;29273;49.962;9.768;2022-12-01T05:18:57;100539.00;;;7.91;53.88
38780;BME280;29273;49.962;9.768;2022-12-01T05:21:43;100543.78;;;7.87;54.14
38780;BME280;29273;49.962;9.768;2022-12-01T05:24:10;100544.97;;;7.85;54.05
38780;BME280;29273;49.962;9.768;2022-12-01T05:26:36;100548.59;;;7.84;53.92
38780;BME280;29273;49.962;9.768;2022-12-01T05:29:01;100547.78;;;7.83;53.90
38780;BME280;29273;49.962;9.768;2022-12-01T05:31:27;100550.41;;;7.83;54.26
38780;BME280;29273;49.962;9.768;2022-12-01T05:33:53;100547.78;;;7.83;54.04
38780;BME280;29273;49.962;9.768;2022-12-01T05:36:18;100547.78;;;7.83;54.15
38780;BME280;29273;49.962;9.768;2022-12-01T05:38:44;100542.34;;;7.85;54.16
38780;BME280;29273;49.962;9.768;2022-12-01T05:41:09;100546.59;;;7.86;54.13
38780;BME280;29273;49.962;9.768;2022-12-01T05:43:35;100546.44;;;7.87;54.51
38780;BME280;29273;49.962;9.768;2022-12-01T05:46:00;100542.81;;;7.88;54.34
38780;BME280;29273;49.962;9.768;2022-12-01T05:48:26;100545.28;;;7.90;54.09
38780;BME280;29273;49.962;9.768;2022-12-01T05:50:52;100555.69;;;7.91;53.77
38780;BME280;29273;49.962;9.768;2022-12-01T05:53:17;100553.22;;;7.90;53.75
38780;BME280;29273;49.962;9.768;2022-12-01T05:55:43;100555.84;;;7.90;53.57
38780;BME280;29273;49.962;9.768;2022-12-01T05:58:10;100556.50;;;7.92;54.00
38780;BME280;29273;49.962;9.768;2022-12-01T06:00:36;100559.28;;;7.90;53.94
38780;BME280;29273;49.962;9.768;2022-12-01T06:03:02;100554.19;;;7.89;53.94
38780;BME280;29273;49.962;9.768;2022-12-01T06:05:28;100554.34;;;7.87;53.75
38780;BME280;29273;49.962;9.768;2022-12-01T06:07:53;100557.16;;;7.86;53.91
38780;BME280;29273;49.962;9.768;2022-12-01T06:10:18;100562.44;;;7.86;54.13
38780;BME280;29273;49.962;9.768;2022-12-01T06:12:44;100554.50;;;7.86;54.26
38780;BME280;29273;49.962;9.768;2022-12-01T06:15:11;100564.09;;;7.87;54.14
38780;BME280;29273;49.962;9.768;2022-12-01T06:17:37;100559.63;;;7.87;54.10
38780;BME280;29273;49.962;9.768;2022-12-01T06:20:04;100555.19;;;7.88;54.24
38780;BME280;29273;49.962;9.768;2022-12-01T06:22:29;100550.91;;;7.87;54.22
38780;BME280;29273;49.962;9.768;2022-12-01T06:24:55;100550.09;;;7.86;54.37
38780;BME280;29273;49.962;9.768;2022-12-01T06:27:20;100558.00;;;7.86;54.16
38780;BME280;29273;49.962;9.768;2022-12-01T06:29:46;100556.16;;;7.87;54.35
38780;BME280;29273;49.962;9.768;2022-12-01T06:32:13;100553.53;;;7.87;54.14
38780;BME280;29273;49.962;9.768;2022-12-01T06:34:38;100555.34;;;7.86;54.29
38780;BME280;29273;49.962;9.768;2022-12-01T06:37:04;100556.16;;;7.87;54.29
38780;BME280;29273;49.962;9.768;2022-12-01T06:39:29;100553.53;;;7.87;54.29
38780;BME280;29273;49.962;9.768;2022-12-01T06:41:55;100552.72;;;7.86;54.11
38780;BME280;29273;49.962;9.768;2022-12-01T06:44:20;100554.50;;;7.86;53.92
38780;BME280;29273;49.962;9.768;2022-12-01T06:46:46;100558.16;;;7.85;54.08
38780;BME280;29273;49.962;9.768;2022-12-01T06:49:11;100561.59;;;7.85;54.13
38780;BME280;29273;49.962;9.768;2022-12-01T06:51:38;100555.53;;;7.85;54.12
38780;BME280;29273;49.962;9.768;2022-12-01T06:54:03;100556.50;;;7.84;54.31
38780;BME280;29273;49.962;9.768;2022-12-01T06:56:29;100559.47;;;7.81;54.19
38780;BME280;29273;49.962;9.768;2022-12-01T06:58:54;100560.31;;;7.81;54.47
38780;BME280;29273;49.962;9.768;2022-12-01T07:01:20;100556.81;;;7.81;54.20
38780;BME280;29273;49.962;9.768;2022-12-01T07:03:49;100555.03;;;7.81;54.10
38780;BME280;29273;49.962;9.768;2022-12-01T07:06:15;100556.81;;;7.81;54.40
38780;BME280;29273;49.962;9.768;2022-12-01T07:08:41;100569.19;;;7.80;54.56
38780;BME280;29273;49.962;9.768;2022-12-01T07:11:10;100570.00;;;7.81;54.52
38780;BME280;29273;49.962;9.768;2022-12-01T07:13:37;100565.06;;;7.77;54.54
38780;BME280;29273;49.962;9.768;2022-12-01T07:16:04;100569.34;;;7.78;54.68
38780;BME280;29273;49.962;9.768;2022-12-01T07:18:31;100573.81;;;7.78;54.74
38780;BME280;29273;49.962;9.768;2022-12-01T07:20:58;100571.19;;;7.78;55.08
38780;BME280;29273;49.962;9.768;2022-12-01T07:23:24;100579.09;;;7.78;55.14
38780;BME280;29273;49.962;9.768;2022-12-01T07:25:57;100581.03;;;7.84;55.20
38780;BME280;29273;49.962;9.768;2022-12-01T07:28:23;100576.28;;;7.80;55.38
38780;BME280;29273;49.962;9.768;2022-12-01T07:30:48;100580.56;;;7.81;54.72
38780;BME280;29273;49.962;9.768;2022-12-01T07:33:14;100584.03;;;7.81;54.94
38780;BME280;29273;49.962;9.768;2022-12-01T07:35:39;100582.22;;;7.82;55.03
38780;BME280;29273;49.962;9.768;2022-12-01T07:38:05;100579.75;;;7.80;54.87
38780;BME280;29273;49.962;9.768;2022-12-01T07:40:30;100591.09;;;7.81;54.64
38780;BME280;29273;49.962;9.768;2022-12-01T07:42:55;100591.94;;;7.81;54.78
38780;BME280;29273;49.962;9.768;2022-12-01T07:45:21;100581.41;;;7.81;54.82
38780;BME280;29273;49.962;9.768;2022-12-01T07:47:46;100586.66;;;7.81;54.79
38780;BME280;29273;49.962;9.768;2022-12-01T07:50:12;100588.47;;;7.81;54.89
38780;BME280;29273;49.962;9.768;2022-12-01T07:52:37;100583.34;;;7.79;54.78
38780;BME280;29273;49.962;9.768;2022-12-01T07:55:03;100571.19;;;7.78;54.69
38780;BME280;29273;49.962;9.768;2022-12-01T07:57:28;100580.06;;;7.77;54.69
38780;BME280;29273;49.962;9.768;2022-12-01T07:59:54;100577.59;;;7.75;54.58
38780;BME280;29273;49.962;9.768;2022-12-01T08:02:19;100574.13;;;7.75;54.81
38780;BME280;29273;49.962;9.768;2022-12-01T08:04:45;100578.41;;;7.76;54.79
38780;BME280;29273;49.962;9.768;2022-12-01T08:07:10;100578.41;;;7.76;55.15
38780;BME280;29273;49.962;9.768;2022-12-01T08:09:36;100587.16;;;7.76;55.11
38780;BME280;29273;49.962;9.768;2022-12-01T08:12:01;100582.69;;;7.77;55.19
38780;BME280;29273;49.962;9.768;2022-12-01T08:14:27;100582.53;;;7.78;55.07
38780;BME280;29273;49.962;9.768;2022-12-01T08:16:52;100576.28;;;7.80;55.01
38780;BME280;29273;49.962;9.768;2022-12-01T08:19:18;100569.03;;;7.82;54.72
38780;BME280;29273;49.962;9.768;2022-12-01T08:21:43;100576.63;;;7.85;54.83
38780;BME280;29273;49.962;9.768;2022-12-01T08:24:09;100578.25;;;7.86;54.84
38780;BME280;29273;49.962;9.768;2022-12-01T08:26:35;100571.03;;;7.88;54.95
38780;BME280;29273;49.962;9.768;2022-12-01T08:29:00;100572.47;;;7.90;55.04
38780;BME280;29273;49.962;9.768;2022-12-01T08:31:29;100570.16;;;7.95;55.18
38780;BME280;29273;49.962;9.768;2022-12-01T08:33:55;100580.72;;;7.95;55.08
38780;BME280;29273;49.962;9.768;2022-12-01T08:36:22;100588.31;;;7.99;55.04
38780;BME280;29273;49.962;9.768;2022-12-01T08:38:50;100581.88;;;8.01;55.10
38780;BME280;29273;49.962;9.768;2022-12-01T08:41:16;100579.25;;;8.01;54.91
38780;BME280;29273;49.962;9.768;2022-12-01T08:43:42;100579.25;;;8.01;54.83
38780;BME280;29273;49.962;9.768;2022-12-01T08:46:12;100584.69;;;8.08;55.02
38780;BME280;29273;49.962;9.768;2022-12-01T08:48:38;100587.66;;;8.05;54.75
38780;BME280;29273;49.962;9.768;2022-12-01T08:51:10;100584.34;;;8.11;55.20
38780;BME280;29273;49.962;9.768;2022-12-01T08:53:37;100591.75;;;8.07;54.92
38780;BME280;29273;49.962;9.768;2022-12-01T08:56:10;100584.84;;;8.14;55.26
38780;BME280;29273;49.962;9.768;2022-12-01T08:58:36;100590.63;;;8.10;54.64
38780;BME280;29273;49.962;9.768;2022-12-01T09:01:11;100585.34;;;8.18;55.34
38780;BME280;29273;49.962;9.768;2022-12-01T09:03:38;100587.50;;;8.14;54.86
38780;BME280;29273;49.962;9.768;2022-12-01T09:06:08;100585.00;;;8.21;54.88
38780;BME280;29273;49.962;9.768;2022-12-01T09:08:34;100585.16;;;8.20;54.77
38780;BME280;29273;49.962;9.768;2022-12-01T09:11:12;100590.59;;;8.26;55.02
38780;BME280;29273;49.962;9.768;2022-12-01T09:13:39;100589.91;;;8.24;54.78
38780;BME280;29273;49.962;9.768;2022-12-01T09:16:07;100587.97;;;8.26;54.78
38780;BME280;29273;49.962;9.768;2022-12-01T09:18:34;100591.41;;;8.27;54.99
38780;BME280;29273;49.962;9.768;2022-12-01T09:23:42;100579.72;;;8.29;54.99
38780;BME280;29273;49.962;9.768;2022-12-01T09:26:08;100586.28;;;8.33;54.86
38780;BME280;29273;49.962;9.768;2022-12-01T09:28:35;100592.06;;;8.37;54.62
38780;BME280;29273;49.962;9.768;2022-12-01T09:31:05;100582.69;;;8.43;55.12
38780;BME280;29273;49.962;9.768;2022-12-01T09:33:31;100587.44;;;8.39;54.59
38780;BME280;29273;49.962;9.768;2022-12-01T09:35:58;100582.69;;;8.43;54.67
38780;BME280;29273;49.962;9.768;2022-12-01T09:38:24;100593.09;;;8.44;54.89
38780;BME280;29273;49.962;9.768;2022-12-01T09:40:50;100585.81;;;8.46;54.93
38780;BME280;29273;49.962;9.768;2022-12-01T09:43:25;100585.63;;;8.56;55.33
38780;BME280;29273;49.962;9.768;2022-12-01T09:45:57;100582.81;;;8.58;55.04
38780;BME280;29273;49.962;9.768;2022-12-01T09:48:31;100576.19;;;8.62;54.94
38780;BME280;29273;49.962;9.768;2022-12-01T09:50:57;100577.34;;;8.59;54.08
38780;BME280;29273;49.962;9.768;2022-12-01T09:53:25;100573.06;;;8.66;54.60
38780;BME280;29273;49.962;9.768;2022-12-01T09:55:54;100576.50;;;8.67;54.27
38780;BME280;29273;49.962;9.768;2022-12-01T09:58:24;100563.28;;;8.75;54.61
38780;BME280;29273;49.962;9.768;2022-12-01T10:00:51;100559.66;;;8.76;54.60
38780;BME280;29273;49.962;9.768;2022-12-01T10:03:33;100560.94;;;8.80;54.85
38780;BME280;29273;49.962;9.768;2022-12-01T10:06:11;100562.44;;;8.83;55.03
38780;BME280;29273;49.962;9.768;2022-12-01T10:08:43;100569.00;;;8.87;55.09
38780;BME280;29273;49.962;9.768;2022-12-01T10:11:28;100566.66;;;8.92;55.08
38780;BME280;29273;49.962;9.768;2022-12-01T10:13:55;100557.19;;;8.75;56.01
38780;BME280;29273;49.962;9.768;2022-12-01T10:16:26;100556.22;;;8.99;55.49
38780;BME280;29273;49.962;9.768;2022-12-01T10:19:13;100559.19;;;9.04;55.41
38780;BME280;29273;49.962;9.768;2022-12-01T10:21:55;100552.22;;;9.11;55.32
38780;BME280;29273;49.962;9.768;2022-12-01T10:27:42;100534.84;;;9.17;54.74
38780;BME280;29273;49.962;9.768;2022-12-01T10:30:16;100535.94;;;9.22;54.48
38780;BME280;29273;49.962;9.768;2022-12-01T10:33:00;100536.44;;;9.26;54.89
38780;BME280;29273;49.962;9.768;2022-12-01T10:35:30;100525.69;;;9.28;54.26
38780;BME280;29273;49.962;9.768;2022-12-01T10:38:06;100525.16;;;9.32;54.36
38780;BME280;29273;49.962;9.768;2022-12-01T10:40:38;100519.22;;;9.30;53.28
38780;BME280;29273;49.962;9.768;2022-12-01T10:43:04;100527.97;;;9.31;53.05
38780;BME280;29273;49.962;9.768;2022-12-01T10:45:34;100530.09;;;9.35;53.54
38780;BME280;29273;49.962;9.768;2022-12-01T10:50:41;100523.69;;;9.30;53.19
38780;BME280;29273;49.962;9.768;2022-12-01T10:55:58;100511.66;;;9.27;53.35
38780;BME280;29273;49.962;9.768;2022-12-01T10:58:26;100511.34;;;9.22;53.26
38780;BME280;29273;49.962;9.768;2022-12-01T11:01:04;100508.53;;;9.23;53.50
38780;BME280;29273;49.962;9.768;2022-12-01T11:03:32;100509.22;;;9.17;52.96
38780;BME280;29273;49.962;9.768;2022-12-01T11:06:00;100503.66;;;9.12;52.57
38780;BME280;29273;49.962;9.768;2022-12-01T11:08:39;100502.84;;;9.12;53.47
38780;BME280;29273;49.962;9.768;2022-12-01T11:11:22;100501.53;;;9.07;53.81
38780;BME280;29273;49.962;9.768;2022-12-01T11:13:48;100502.06;;;9.03;53.18
38780;BME280;29273;49.962;9.768;2022-12-01T11:19:15;100494.78;;;9.05;53.99
38780;BME280;29273;49.962;9.768;2022-12-01T11:21:47;100493.59;;;9.07;54.41
38780;BME280;29273;49.962;9.768;2022-12-01T11:24:40;100484.38;;;9.03;54.70
38780;BME280;29273;49.962;9.768;2022-12-01T11:27:16;100484.34;;;9.12;54.77
38780;BME280;29273;49.962;9.768;2022-12-01T11:29:43;100483.53;;;9.11;54.03
38780;BME280;29273;49.962;9.768;2022-12-01T11:32:25;100486.94;;;9.20;54.87
38780;BME280;29273;49.962;9.768;2022-12-01T11:34:58;100478.00;;;9.21;54.46
38780;BME280;29273;49.962;9.768;2022-12-01T11:37:26;100474.63;;;9.04;55.28
38780;BME280;29273;49.962;9.768;2022-12-01T11:39:53;100471.25;;;9.18;53.93
38780;BME280;29273;49.962;9.768;2022-12-01T11:42:25;100470.38;;;9.26;54.36
38780;BME280;29273;49.962;9.768;2022-12-01T11:44:53;100477.75;;;9.07;55.20
38780;BME280;29273;49.962;9.768;2022-12-01T11:47:22;100474.19;;;9.23;54.54
38780;BME280;29273;49.962;9.768;2022-12-01T11:49:56;100478.13;;;9.28;54.16
38780;BME280;29273;49.962;9.768;2022-12-01T11:52:33;100466.72;;;9.27;53.94
38780;BME280;29273;49.962;9.768;2022-12-01T11:57:35;100464.25;;;9.25;53.82
38780;BME280;29273;49.962;9.768;2022-12-01T12:00:12;100463.53;;;9.32;54.01
38780;BME280;29273;49.962;9.768;2022-12-01T12:02:53;100461.53;;;9.34;54.13
38780;BME280;29273;49.962;9.768;2022-12-01T12:11:17;100455.19;;;9.43;54.53
38780;BME280;29273;49.962;9.768;2022-12-01T12:14:19;100456.81;;;9.44;54.55
38780;BME280;29273;49.962;9.768;2022-12-01T12:17:22;100445.91;;;9.47;54.62
38780;BME280;29273;49.962;9.768;2022-12-01T12:20:04;100445.19;;;9.53;54.65
38780;BME280;29273;49.962;9.768;2022-12-01T12:22:46;100448.19;;;9.50;53.86
38780;BME280;29273;49.962;9.768;2022-12-01T12:25:22;100447.66;;;9.55;54.04
38780;BME280;29273;49.962;9.768;2022-12-01T12:31:03;100446.56;;;9.64;54.21
38780;BME280;29273;49.962;9.768;2022-12-01T12:41:26;100442.84;;;9.73;54.22
38780;BME280;29273;49.962;9.768;2022-12-01T12:49:26;100433.75;;;9.76;54.05
38780;BME280;29273;49.962;9.768;2022-12-01T12:52:10;100431.75;;;9.78;53.58
38780;BME280;29273;49.962;9.768;2022-12-01T13:02:21;100437.50;;;9.81;53.27
38780;BME280;29273;49.962;9.768;2022-12-01T13:04:57;100430.19;;;9.84;53.68
38780;BME280;29273;49.962;9.768;2022-12-01T13:10:02;100430.38;;;9.82;52.97
38780;BME280;29273;49.962;9.768;2022-12-01T13:12:36;100428.75;;;9.81;53.25
38780;BME280;29273;49.962;9.768;2022-12-01T13:15:16;100431.22;;;9.82;53.54
38780;BME280;29273;49.962;9.768;2022-12-01T13:17:50;100429.38;;;9.83;54.10
38780;BME280;29273;49.962;9.768;2022-12-01T13:20:20;100426.91;;;9.81;53.65
38780;BME280;29273;49.962;9.768;2022-12-01T13:22:49;100431.75;;;9.78;53.28
38780;BME280;29273;49.962;9.768;2022-12-01T13:25:23;100423.91;;;9.85;53.50
38780;BME280;29273;49.962;9.768;2022-12-01T13:27:50;100425.91;;;9.82;53.53
38780;BME280;29273;49.962;9.768;2022-12-01T13:30:19;100428.00;;;9.87;53.40
38780;BME280;29273;49.962;9.768;2022-12-01T13:32:45;100420.41;;;9.84;52.89
38780;BME280;29273;49.962;9.768;2022-12-01T13:37:43;100426.72;;;9.83;53.21
38780;BME280;29273;49.962;9.768;2022-12-01T13:40:29;100417.41;;;9.87;53.77
38780;BME280;29273;49.962;9.768;2022-12-01T13:42:58;100412.78;;;9.89;53.48
38780;BME280;29273;49.962;9.768;2022-12-01T13:45:28;100414.41;;;9.90;53.45
38780;BME280;29273;49.962;9.768;2022-12-01T13:47:56;100407.84;;;9.86;53.19
38780;BME280;29273;49.962;9.768;2022-12-01T13:55:55;100406.66;;;9.89;53.64
38780;BME280;29273;49.962;9.768;2022-12-01T14:03:54;100407.84;;;9.86;53.55
38780;BME280;29273;49.962;9.768;2022-12-01T14:09:35;100408.38;;;9.81;53.91
38780;BME280;29273;49.962;9.768;2022-12-01T14:14:41;100399.16;;;9.77;53.20
38780;BME280;29273;49.962;9.768;2022-12-01T14:17:25;100401.81;;;9.77;53.71
38780;BME280;29273;49.962;9.768;2022-12-01T14:19:51;100399.88;;;9.56;54.18
38780;BME280;29273;49.962;9.768;2022-12-01T14:22:36;100398.44;;;9.69;53.76
38780;BME280;29273;49.962;9.768;2022-12-01T14:25:04;100400.44;;;9.67;53.21
38780;BME280;29273;49.962;9.768;2022-12-01T14:27:44;100403.63;;;9.62;53.45
38780;BME280;29273;49.962;9.768;2022-12-01T14:36:31;100400.06;;;9.55;53.46
38780;BME280;29273;49.962;9.768;2022-12-01T14:41:28;100391.00;;;9.49;53.45
38780;BME280;29273;49.962;9.768;2022-12-01T14:44:10;100401.97;;;9.46;53.23
38780;BME280;29273;49.962;9.768;2022-12-01T14:46:43;100394.41;;;9.43;53.50
38780;BME280;29273;49.962;9.768;2022-12-01T14:49:18;100402.50;;;9.41;53.60
38780;BME280;29273;49.962;9.768;2022-12-01T14:51:47;100393.84;;;9.33;53.53
38780;BME280;29273;49.962;9.768;2022-12-01T14:54:18;100399.13;;;9.33;53.71
38780;BME280;29273;49.962;9.768;2022-12-01T14:56:46;100397.19;;;9.26;53.91
38780;BME280;29273;49.962;9.768;2022-12-01T14:59:20;100399.00;;;9.26;53.87
38780;BME280;29273;49.962;9.768;2022-12-01T15:01:49;100401.38;;;9.21;54.30